Time;durP1;ratioP1;P1;durP2;ratioP2;P2;SDS_P1;SDS_P2;PMS_P1;PMS_P2;Temp;Humidity;BMP_temperature;BMP_pressure;BME280_temperature;BME280_humidity;BME280_pressure;Samples;Min_cycle;Max_cycle;Signal;HPM_P1;HPM_P2
2023/12/13 03:13:05;;;;;;;0.93;0.93;;;;;;;8.57;59.65;98506.38;5199155;27;20098;-92
2023/12/13 03:15:31;;;;;;;0.40;0.40;;;;;;;8.49;59.65;98503.25;5293562;27;20077;-92
2023/12/13 03:52:11;;;;;;;;;;;;;;;;;;;;;
2023/12/13 03:58:47;;;;;;;;;;;;;;;;;;;;;
2023/12/13 04:01:42;;;;;;;;;;;;;;;8.73;59.66;98428.69;5204546;27;35429;-93
2023/12/13 04:16:16;;;;;;;;;;;;;;;;;;;;;
2023/12/13 04:25:41;;;;;;;;;;;;;;;;;;;;;
2023/12/13 04:28:51;;;;;;;1.00;0.90;;;;;;;8.27;59.64;98438.47;4997898;28;35726;-92
2023/12/13 04:58:04;;;;;;;2.03;1.85;;;;;;;8.42;59.64;98420.63;5191078;27;20082;-94
2023/12/13 05:04:58;;;;;;;;;;;;;;;;;;;;;
2023/12/13 05:09:00;;;;;;;;;;;;;;;;;;;;;
2023/12/13 05:11:47;;;;;;;;;;;;;;;;;;;;;
2023/12/13 05:15:06;;;;;;;0.00;0.00;;;;;;;8.39;59.65;98428.53;5196017;27;35505;-93
2023/12/13 05:28:05;;;;;;;0.00;0.00;;;;;;;8.25;59.63;98442.06;5154597;27;20108;-94
2023/12/13 05:30:42;;;;;;;0.00;0.00;;;;;;;8.09;59.62;98428.94;5173026;27;20072;-94
2023/12/13 05:40:53;;;;;;;0.00;0.00;;;;;;;8.11;59.63;98421.09;5287683;26;20063;-95
2023/12/13 05:43:20;;;;;;;0.17;0.17;;;;;;;7.96;59.61;98413.06;5247997;27;20504;-95
2023/12/13 05:45:50;;;;;;;0.00;0.00;;;;;;;7.89;59.62;98406.47;5268515;27;20115;-96
2023/12/13 05:48:27;;;;;;;0.00;0.00;;;;;;;7.90;59.61;98402.97;5238347;27;20054;-96
2023/12/13 05:50:58;;;;;;;0.13;0.13;;;;;;;7.83;59.61;98400.72;5224520;27;20034;-95
2023/12/13 05:53:33;;;;;;;0.00;0.00;;;;;;;8.11;59.62;98405.53;5250303;27;20076;-95
2023/12/13 05:56:21;;;;;;;0.00;0.00;;;;;;;8.21;59.63;98404.22;5251779;27;20034;-95
2023/12/13 05:59:15;;;;;;;0.52;0.30;;;;;;;8.04;59.62;98401.50;5270061;27;20037;-96
2023/12/13 06:01:46;;;;;;;0.00;0.00;;;;;;;7.98;59.61;98393.09;5252875;27;20021;-95
2023/12/13 06:04:42;;;;;;;0.20;0.20;;;;;;;7.80;59.61;98391.28;5254762;27;20031;-96
2023/12/13 06:07:24;;;;;;;;;;;;;;;;;;;;;
2023/12/13 06:10:12;;;;;;;;;;;;;;;;;;;;;
2023/12/13 06:12:51;;;;;;;0.00;0.00;;;;;;;8.07;59.63;98397.06;5244951;27;35496;-95
2023/12/13 06:15:29;;;;;;;0.47;0.47;;;;;;;7.95;59.62;98379.44;5261462;27;20029;-96
2023/12/13 06:18:05;;;;;;;0.00;0.00;;;;;;;7.74;59.61;98372.59;5266113;27;20054;-94
2023/12/13 06:20:46;;;;;;;2.65;0.65;;;;;;;7.86;59.62;98370.31;5250669;27;20061;-96
2023/12/13 06:23:14;;;;;;;0.00;0.00;;;;;;;7.70;59.60;98372.72;5286851;27;20067;-95
2023/12/13 06:26:03;;;;;;;1.15;0.55;;;;;;;7.87;59.61;98369.41;5251072;27;20053;-95
2023/12/13 06:28:57;;;;;;;0.00;0.00;;;;;;;7.78;59.61;98374.12;5249069;27;20053;-96
2023/12/13 06:31:36;;;;;;;0.00;0.00;;;;;;;7.85;59.62;98376.41;5269678;27;20132;-96
2023/12/13 06:34:01;;;;;;;0.00;0.00;;;;;;;7.76;59.62;98376.78;5246283;27;20063;-95
2023/12/13 06:40:08;;;;;;;0.13;0.13;;;;;;;8.00;59.62;98400.81;5245381;27;20049;-93
2023/12/13 06:42:34;;;;;;;0.00;0.00;;;;;;;7.98;59.62;98392.25;5226900;27;20117;-94
2023/12/13 06:45:00;;;;;;;0.35;0.35;;;;;;;8.00;59.62;98385.25;5244067;27;20045;-95
2023/12/13 06:47:25;;;;;;;0.00;0.00;;;;;;;8.06;59.62;98379.84;5225951;27;20427;-94
2023/12/13 06:49:53;;;;;;;0.00;0.00;;;;;;;8.10;59.63;98388.31;5243913;27;20081;-94
2023/12/13 06:52:18;;;;;;;0.43;0.43;;;;;;;8.13;59.63;98390.75;5260407;27;20064;-95
2023/12/13 06:55:04;;;;;;;0.00;0.00;;;;;;;8.28;59.64;98392.66;5243457;27;20073;-94
2023/12/13 06:57:32;;;;;;;0.17;0.17;;;;;;;8.26;59.64;98387.53;5263300;27;20659;-95
2023/12/13 06:59:58;;;;;;;0.10;0.10;;;;;;;8.16;59.63;98383.69;5244007;27;20069;-95
2023/12/13 07:09:30;;;;;;;0.00;0.00;;;;;;;8.28;59.64;98387.47;5279725;27;20077;-94
2023/12/13 07:12:34;;;;;;;0.00;0.00;;;;;;;8.47;59.65;98380.59;5226368;27;20065;-94
2023/12/13 07:22:50;;;;;;;;;;;;;;;;;;;;;
2023/12/13 07:25:06;;;;;;;;;;;;;;;;;;;;;
2023/12/13 07:28:16;;;;;;;0.32;0.32;;;;;;;8.34;59.64;98382.06;5291813;27;37332;-94
2023/12/13 07:31:04;;;;;;;0.00;0.00;;;;;;;8.34;59.64;98379.47;5305527;27;20049;-95
2023/12/13 07:33:45;;;;;;;;;;;;;;;;;;;;;
2023/12/13 07:36:14;;;;;;;0.20;0.10;;;;;;;8.66;59.65;98377.16;5288828;27;37585;-93
2023/12/13 07:38:55;;;;;;;0.00;0.00;;;;;;;8.47;59.65;98382.34;5268528;27;20127;-93
2023/12/13 07:41:33;;;;;;;;;;;;;;;;;;;;;
2023/12/13 07:44:02;;;;;;;0.00;0.00;;;;;;;8.50;59.64;98379.59;5288162;27;36345;-94
2023/12/13 07:46:30;;;;;;;0.00;0.00;;;;;;;8.56;59.65;98372.41;5267552;27;20713;-93
2023/12/13 07:49:03;;;;;;;0.00;0.00;;;;;;;8.58;59.65;98364.56;5268445;27;20057;-95
2023/12/13 07:51:33;;;;;;;0.00;0.00;;;;;;;8.84;59.67;98361.59;5269359;27;20049;-94
2023/12/13 07:54:09;;;;;;;0.00;0.00;;;;;;;8.83;59.67;98356.47;5270613;27;20750;-95
2023/12/13 07:56:45;;;;;;;0.10;0.10;;;;;;;8.95;59.67;98357.63;5270037;27;20498;-95
2023/12/13 07:59:32;;;;;;;;;;;;;;;;;;;;;
2023/12/13 08:01:58;;;;;;;0.00;0.00;;;;;;;8.86;59.66;98339.00;5288121;27;35881;-94
2023/12/13 08:04:26;;;;;;;3.50;1.00;;;;;;;8.82;59.67;98344.41;5267609;27;20061;-94
2023/12/13 08:06:59;;;;;;;0.55;0.47;;;;;;;8.68;59.66;98344.22;5268623;27;20078;-94
2023/12/13 08:09:25;;;;;;;0.17;0.17;;;;;;;8.65;59.65;98336.59;5268249;27;20072;-94
2023/12/13 08:11:51;;;;;;;0.40;0.40;;;;;;;8.71;59.66;98329.34;5268451;27;20326;-93
2023/12/13 08:14:30;;;;;;;1.25;1.17;;;;;;;8.57;59.65;98339.53;5266854;27;20052;-94
2023/12/13 08:17:06;;;;;;;0.13;0.13;;;;;;;8.70;59.66;98335.44;5269222;27;20049;-95
2023/12/13 08:19:31;;;;;;;0.47;0.47;;;;;;;8.78;59.67;98329.91;5268557;27;20061;-93
2023/12/13 08:22:43;;;;;;;;;;;;;;;;;;;;;
2023/12/13 08:25:45;;;;;;;0.43;0.25;;;;;;;8.73;59.66;98334.47;5305452;27;37195;-94
2023/12/13 08:28:37;;;;;;;;;;;;;;;;;;;;;
2023/12/13 08:32:02;;;;;;;;;;;;;;;;;;;;;
2023/12/13 08:35:11;;;;;;;;;;;;;;;;;;;;;
2023/12/13 08:37:50;;;;;;;0.15;0.15;;;;;;;8.94;59.67;98323.06;5321839;27;35592;-94
2023/12/13 08:50:17;;;;;;;0.20;0.20;;;;;;;9.14;59.68;98335.91;5281161;27;20060;-95
2023/12/13 08:59:22;;;;;;;0.20;0.20;;;;;;;9.12;59.67;98335.16;5227466;27;20654;-95
2023/12/13 09:20:59;;;;;;;;;;;;;;;;;;;;;
2023/12/13 09:24:21;;;;;;;;;;;;;;;;;;;;;
2023/12/13 10:34:44;;;;;;;;;;;;;;;;;;;;;
2023/12/13 10:38:03;;;;;;;;;;;;;;;;;;;;;
2023/12/13 10:40:49;;;;;;;1.62;1.52;;;;;;;9.73;59.72;98282.75;5341316;26;35796;-94
2023/12/13 10:47:37;;;;;;;;;;;;;;;;;;;;;
2023/12/13 10:50:16;;;;;;;0.15;0.05;;;;;;;9.57;59.71;98279.25;5345763;26;35036;-94
2023/12/13 10:53:02;;;;;;;0.00;0.00;;;;;;;9.71;59.71;98270.75;5312980;26;20080;-94
2023/12/13 10:58:56;;;;;;;0.30;0.30;;;;;;;9.76;59.71;98250.56;5349679;26;20107;-92
2023/12/13 11:02:32;;;;;;;0.00;0.00;;;;;;;9.60;59.71;98247.91;5291360;26;20401;-91
2023/12/13 11:05:15;;;;;;;0.17;0.17;;;;;;;9.63;59.71;98247.75;5232839;27;20435;-92
2023/12/13 11:14:25;;;;;;;0.10;0.10;;;;;;;9.37;59.70;98245.66;5231400;26;20061;-92
2023/12/13 11:17:24;;;;;;;0.52;0.52;;;;;;;9.36;59.70;98239.63;5252401;27;20454;-92
2023/12/13 11:20:55;;;;;;;;;;;;;;;;;;;;;
2023/12/13 11:26:32;;;;;;;0.22;0.22;;;;;;;9.74;59.72;98222.06;5276215;27;20079;-92
2023/12/13 11:37:34;;;;;;;;;;;;;;;;;;;;;
2023/12/13 16:45:20;;;;;;;1.87;1.77;;;;;;;8.61;59.65;98172.50;5359484;26;20068;-96
2023/12/13 16:48:13;;;;;;;3.40;1.75;;;;;;;8.55;59.65;98177.97;5363666;26;20028;-96
2023/12/13 16:51:41;;;;;;;;;;;;;;;;;;;;;
2023/12/13 17:05:36;;;;;;;;;;;;;;;;;;;;;
